Time;durP1;ratioP1;P1;durP2;ratioP2;P2;SDS_P1;SDS_P2;PMS_P1;PMS_P2;Temp;Humidity;BMP_temperature;BMP_pressure;BME280_temperature;BME280_humidity;BME280_pressure;Samples;Min_cycle;Max_cycle;Signal;HPM_P1;HPM_P2
2021/10/25 00:00:07;;;;;;;9.00;5.13;;;7.20;92.40;;;;;;4952595;28;20984;-75
2021/10/25 00:02:38;;;;;;;5.57;4.90;;;7.20;92.40;;;;;;4952406;28;20252;-75
2021/10/25 00:05:05;;;;;;;7.30;4.47;;;7.30;92.50;;;;;;4951380;29;20912;-75
2021/10/25 00:07:31;;;;;;;7.70;5.13;;;7.30;92.50;;;;;;4952217;28;20193;-75
2021/10/25 00:09:58;;;;;;;6.37;4.70;;;7.30;92.50;;;;;;4952303;28;20879;-75
2021/10/25 00:12:23;;;;;;;7.30;4.37;;;7.30;92.50;;;;;;4952371;28;20855;-75
2021/10/25 00:14:52;;;;;;;8.27;4.83;;;7.30;92.70;;;;;;4952592;28;20397;-75
2021/10/25 00:17:18;;;;;;;14.80;5.57;;;7.20;92.70;;;;;;4952731;28;20903;-75
2021/10/25 00:19:44;;;;;;;7.40;4.90;;;7.20;92.70;;;;;;4950949;29;20456;-75
2021/10/25 00:22:10;;;;;;;11.20;4.43;;;7.20;92.70;;;;;;4952085;28;20173;-75
2021/10/25 00:24:36;;;;;;;6.83;4.60;;;7.20;92.80;;;;;;4951218;29;20419;-75
2021/10/25 00:27:01;;;;;;;8.87;4.13;;;7.20;92.80;;;;;;4952334;29;20157;-75
2021/10/25 00:29:27;;;;;;;11.07;5.20;;;7.20;92.90;;;;;;4950876;29;20264;-74
2021/10/25 00:31:53;;;;;;;13.73;5.40;;;7.20;93.00;;;;;;4951664;28;20197;-75
2021/10/25 00:34:20;;;;;;;6.60;4.50;;;7.20;92.90;;;;;;4952181;28;20166;-75
2021/10/25 00:36:45;;;;;;;10.70;4.53;;;7.20;92.90;;;;;;4951516;29;20501;-74
2021/10/25 00:39:11;;;;;;;7.70;4.90;;;7.20;93.00;;;;;;4955120;28;20188;-74
2021/10/25 00:41:37;;;;;;;5.83;4.73;;;7.20;93.00;;;;;;4954586;29;20871;-75
2021/10/25 00:44:03;;;;;;;7.33;4.27;;;7.20;93.00;;;;;;4939079;29;20173;-74
2021/10/25 00:46:30;;;;;;;10.10;4.87;;;7.20;93.00;;;;;;4954477;29;20409;-75
2021/10/25 00:48:55;;;;;;;9.70;4.90;;;7.20;93.10;;;;;;4954288;28;20424;-75
2021/10/25 00:51:22;;;;;;;7.90;4.77;;;7.20;93.20;;;;;;4955398;28;20504;-75
2021/10/25 00:53:48;;;;;;;10.80;5.17;;;7.20;93.20;;;;;;4955665;29;20495;-75
2021/10/25 00:56:13;;;;;;;7.33;4.63;;;7.20;93.10;;;;;;4954389;29;20451;-74
2021/10/25 00:58:39;;;;;;;8.90;5.03;;;7.20;93.20;;;;;;4955651;29;20161;-75
2021/10/25 01:01:07;;;;;;;11.63;5.10;;;7.20;93.10;;;;;;4955330;29;20204;-75
2021/10/25 01:03:35;;;;;;;6.10;4.00;;;7.10;93.10;;;;;;4954378;29;20743;-75
2021/10/25 01:06:01;;;;;;;8.83;4.70;;;7.20;93.10;;;;;;4954611;29;20999;-75
2021/10/25 01:08:32;;;;;;;10.67;4.63;;;7.20;93.10;;;;;;4955939;28;20919;-76
2021/10/25 01:10:59;;;;;;;10.63;5.63;;;7.10;93.10;;;;;;4955173;28;20456;-75
2021/10/25 01:13:26;;;;;;;8.90;5.20;;;7.10;93.20;;;;;;4954293;28;20435;-76
2021/10/25 01:15:51;;;;;;;8.30;4.67;;;7.10;93.30;;;;;;4955702;28;20409;-74
2021/10/25 01:18:17;;;;;;;6.23;4.40;;;7.10;93.30;;;;;;4957538;29;20432;-74
2021/10/25 01:20:44;;;;;;;9.00;4.60;;;7.00;93.30;;;;;;4977859;29;20193;-76
2021/10/25 01:23:10;;;;;;;6.87;4.67;;;7.00;93.40;;;;;;4978868;28;20515;-77
2021/10/25 01:25:37;;;;;;;5.97;3.97;;;7.00;93.50;;;;;;4975790;28;20357;-77
2021/10/25 01:28:04;;;;;;;14.47;5.73;;;7.00;93.50;;;;;;4991901;28;20444;-75
2021/10/25 01:30:30;;;;;;;7.30;5.03;;;7.00;93.50;;;;;;4955268;28;20451;-75
2021/10/25 01:32:56;;;;;;;8.60;4.57;;;7.00;93.60;;;;;;4954872;29;20416;-74
2021/10/25 01:35:24;;;;;;;7.47;4.50;;;7.00;93.70;;;;;;4953857;28;20503;-75
2021/10/25 01:37:50;;;;;;;21.47;5.10;;;7.00;93.70;;;;;;4953722;29;20823;-74
2021/10/25 01:40:17;;;;;;;6.37;4.20;;;7.00;93.80;;;;;;4954762;28;20706;-75
2021/10/25 01:42:43;;;;;;;7.07;4.53;;;7.00;93.80;;;;;;4953605;29;20436;-77
2021/10/25 01:45:11;;;;;;;8.60;5.53;;;7.00;93.80;;;;;;4953592;29;20416;-74
2021/10/25 01:47:37;;;;;;;7.30;4.53;;;7.00;93.80;;;;;;4953470;29;20231;-74
2021/10/25 01:50:05;;;;;;;9.33;4.93;;;6.90;93.90;;;;;;4953089;28;20440;-75
2021/10/25 01:52:32;;;;;;;8.30;4.83;;;7.00;94.00;;;;;;4937218;29;20426;-73
2021/10/25 01:54:58;;;;;;;9.17;4.47;;;6.90;94.00;;;;;;4953213;28;21062;-74
2021/10/25 01:57:24;;;;;;;9.63;5.70;;;6.90;93.90;;;;;;4953365;29;20413;-74
2021/10/25 01:59:51;;;;;;;8.90;4.67;;;6.90;94.00;;;;;;4953242;29;20480;-77
2021/10/25 02:02:22;;;;;;;7.10;5.30;;;6.90;94.00;;;;;;4952964;29;20413;-75
2021/10/25 02:04:50;;;;;;;13.00;4.93;;;6.90;94.00;;;;;;4953194;29;20427;-73
2021/10/25 02:07:16;;;;;;;7.60;5.30;;;6.80;94.00;;;;;;4952599;29;20413;-75
2021/10/25 02:09:43;;;;;;;7.60;4.97;;;6.80;94.10;;;;;;4952916;29;20946;-75
2021/10/25 02:12:08;;;;;;;6.47;5.50;;;6.80;94.20;;;;;;4954310;28;20421;-74
2021/10/25 02:14:36;;;;;;;7.97;4.63;;;6.80;94.20;;;;;;4937475;29;20176;-74
2021/10/25 02:17:02;;;;;;;8.37;5.30;;;6.80;94.20;;;;;;4953088;29;20797;-74
2021/10/25 02:19:36;;;;;;;5.87;4.17;;;6.70;94.20;;;;;;4952516;29;20207;-74
2021/10/25 02:22:09;;;;;;;9.80;5.40;;;6.70;94.30;;;;;;4952435;29;20823;-74
2021/10/25 02:24:35;;;;;;;4.83;4.33;;;6.70;94.30;;;;;;4952719;29;20412;-75
2021/10/25 02:27:03;;;;;;;9.77;4.93;;;6.70;94.40;;;;;;4952838;29;20168;-74
2021/10/25 02:29:38;;;;;;;10.70;5.47;;;6.70;94.40;;;;;;4953072;28;20652;-75
2021/10/25 02:32:16;;;;;;;8.20;4.63;;;6.70;94.40;;;;;;4952709;29;20409;-75
2021/10/25 02:34:45;;;;;;;7.20;4.60;;;6.70;94.50;;;;;;4952573;29;20440;-75
2021/10/25 02:37:14;;;;;;;10.07;4.93;;;6.70;94.50;;;;;;4952630;29;20421;-73
2021/10/25 02:39:40;;;;;;;6.87;4.70;;;6.70;94.50;;;;;;4952281;28;20453;-74
2021/10/25 02:42:07;;;;;;;12.47;5.53;;;6.70;94.50;;;;;;4952160;29;20432;-73
2021/10/25 02:44:34;;;;;;;10.33;6.60;;;6.60;94.40;;;;;;4952405;29;20417;-74
2021/10/25 02:46:59;;;;;;;10.27;5.60;;;6.60;94.50;;;;;;4953654;29;20993;-73
2021/10/25 02:49:25;;;;;;;9.23;5.50;;;6.60;94.60;;;;;;4952327;29;20173;-75
2021/10/25 02:51:51;;;;;;;12.20;5.00;;;6.60;94.60;;;;;;4951966;29;20811;-75
2021/10/25 02:54:17;;;;;;;8.00;4.03;;;6.60;94.60;;;;;;4952118;29;20420;-74
2021/10/25 02:56:53;;;;;;;5.97;4.33;;;6.50;94.70;;;;;;4936978;29;20169;-74
2021/10/25 02:59:25;;;;;;;8.30;4.43;;;6.50;94.70;;;;;;4936867;29;20851;-74
2021/10/25 03:01:51;;;;;;;7.27;5.20;;;6.50;94.80;;;;;;4950997;28;20435;-74
2021/10/25 03:04:17;;;;;;;7.80;5.17;;;6.50;94.80;;;;;;4951965;29;20863;-74
2021/10/25 03:06:43;;;;;;;9.20;4.90;;;6.50;94.80;;;;;;4953269;28;20169;-73
2021/10/25 03:09:11;;;;;;;5.20;4.37;;;6.50;94.80;;;;;;4951216;29;20413;-75
2021/10/25 03:11:38;;;;;;;9.23;5.80;;;6.50;94.80;;;;;;4951578;29;20807;-75
2021/10/25 03:14:04;;;;;;;11.63;5.23;;;6.50;94.80;;;;;;4952004;29;20416;-75
2021/10/25 03:16:40;;;;;;;7.37;4.97;;;6.50;94.90;;;;;;4951910;29;20496;-75
2021/10/25 03:19:07;;;;;;;8.43;4.83;;;6.40;94.90;;;;;;4951651;29;20412;-75
2021/10/25 03:21:34;;;;;;;10.33;5.93;;;6.40;95.00;;;;;;4951364;29;20473;-74
2021/10/25 03:24:00;;;;;;;8.03;5.10;;;6.40;95.00;;;;;;4935589;29;20417;-75
2021/10/25 03:26:26;;;;;;;7.57;5.20;;;6.40;95.00;;;;;;4951727;29;20205;-75
2021/10/25 03:28:53;;;;;;;9.37;5.03;;;6.40;94.90;;;;;;4951455;29;20901;-76
2021/10/25 03:31:21;;;;;;;15.80;5.00;;;6.40;95.00;;;;;;4951237;29;20475;-75
2021/10/25 03:33:48;;;;;;;8.03;4.80;;;6.40;95.00;;;;;;4951600;29;20934;-75
2021/10/25 03:36:28;;;;;;;7.40;4.70;;;6.30;94.90;;;;;;4951488;29;20425;-75
2021/10/25 03:38:56;;;;;;;10.10;4.97;;;6.30;95.00;;;;;;4951468;29;20451;-75
2021/10/25 03:41:30;;;;;;;8.93;4.73;;;6.30;95.10;;;;;;4951051;29;20436;-75
2021/10/25 03:44:01;;;;;;;9.23;4.87;;;6.30;95.10;;;;;;4951210;29;20416;-75
2021/10/25 03:49:17;;;;;;;9.30;5.33;;;6.20;95.10;;;;;;4951283;29;20417;-75
2021/10/25 03:52:08;;;;;;;6.23;4.23;;;6.20;95.20;;;;;;4951292;29;20787;-75
2021/10/25 03:54:42;;;;;;;10.10;5.30;;;6.20;95.20;;;;;;4951481;29;20842;-75
2021/10/25 03:57:30;;;;;;;8.30;5.70;;;6.20;95.30;;;;;;4951232;29;20420;-75
2021/10/25 04:13:44;;;;;;;8.53;4.97;;;6.10;95.40;;;;;;4973912;28;20415;-75
2021/10/25 04:30:18;;;;;;;7.80;5.10;;;6.00;95.90;;;;;;4970794;28;20453;-74
2021/10/25 04:32:44;;;;;;;10.87;5.33;;;6.00;95.50;;;;;;4970621;28;20176;-74
2021/10/25 04:35:27;;;;;;;7.33;4.80;;;6.00;95.60;;;;;;4970905;28;20428;-75
2021/10/25 04:38:25;;;;;;;15.70;6.63;;;6.00;95.60;;;;;;4935733;29;20418;-74
2021/10/25 04:40:50;;;;;;;11.97;5.47;;;6.00;95.60;;;;;;4964559;28;20850;-75
2021/10/25 04:43:17;;;;;;;7.80;5.77;;;5.90;95.50;;;;;;4939241;29;20213;-75
2021/10/25 04:45:44;;;;;;;10.83;5.00;;;5.90;95.60;;;;;;4971075;28;20269;-74
2021/10/25 04:48:12;;;;;;;11.37;4.90;;;5.90;95.60;;;;;;4971584;28;20416;-74
2021/10/25 04:50:55;;;;;;;12.30;5.90;;;5.90;95.60;;;;;;4970358;28;20591;-74
2021/10/25 04:53:40;;;;;;;6.70;5.23;;;5.90;95.60;;;;;;4939188;29;20420;-75
2021/10/25 04:56:06;;;;;;;8.23;5.33;;;5.90;95.60;;;;;;4971078;28;20435;-74
2021/10/25 04:58:32;;;;;;;11.00;6.27;;;5.80;95.60;;;;;;4971453;28;20201;-75
2021/10/25 05:00:57;;;;;;;6.73;5.23;;;5.80;95.60;;;;;;4950382;29;20835;-75
2021/10/25 05:03:23;;;;;;;6.87;5.47;;;5.80;95.60;;;;;;4959537;29;20477;-74
2021/10/25 05:05:49;;;;;;;12.57;5.87;;;5.80;95.70;;;;;;4960123;29;20212;-74
2021/10/25 05:08:15;;;;;;;8.17;5.30;;;5.80;95.70;;;;;;4972399;28;20178;-72
2021/10/25 05:10:41;;;;;;;7.97;5.40;;;5.70;95.70;;;;;;4974604;28;20204;-71
2021/10/25 05:13:07;;;;;;;13.70;6.20;;;5.70;95.70;;;;;;4965003;28;20488;-73
2021/10/25 05:15:33;;;;;;;7.47;6.17;;;5.70;95.80;;;;;;4952419;29;20413;-73
2021/10/25 05:17:59;;;;;;;7.40;4.63;;;5.70;95.80;;;;;;4965686;28;20480;-73
2021/10/25 05:20:25;;;;;;;8.87;5.53;;;5.70;95.90;;;;;;4948411;29;20457;-72
2021/10/25 05:22:51;;;;;;;16.00;5.77;;;5.70;96.00;;;;;;4991915;28;20663;-71
2021/10/25 05:25:17;;;;;;;11.37;6.17;;;5.70;96.00;;;;;;4983931;28;20914;-72
2021/10/25 05:27:43;;;;;;;14.83;6.50;;;5.60;95.90;;;;;;4975572;28;20417;-72
2021/10/25 05:30:09;;;;;;;10.70;5.90;;;5.60;96.00;;;;;;4973811;28;20204;-72
2021/10/25 05:32:35;;;;;;;11.70;6.70;;;5.60;96.10;;;;;;4976927;28;20184;-73
2021/10/25 05:35:02;;;;;;;12.40;7.10;;;5.60;96.10;;;;;;4992660;28;20425;-72
2021/10/25 05:37:29;;;;;;;10.37;6.60;;;5.60;96.10;;;;;;4973876;28;20443;-72
2021/10/25 05:39:57;;;;;;;6.57;5.37;;;5.60;96.00;;;;;;4954600;28;20539;-72
2021/10/25 05:42:27;;;;;;;11.50;6.50;;;5.60;96.10;;;;;;4940119;29;20168;-72
2021/10/25 05:44:53;;;;;;;11.83;6.20;;;5.60;96.20;;;;;;4972491;28;20468;-72
2021/10/25 05:47:18;;;;;;;8.00;5.47;;;5.60;96.20;;;;;;4972834;28;20944;-73
2021/10/25 05:49:45;;;;;;;7.80;5.73;;;5.60;96.30;;;;;;4973091;28;20281;-72
2021/10/25 05:52:10;;;;;;;12.47;5.73;;;5.60;96.30;;;;;;4971809;28;20209;-71
2021/10/25 05:54:36;;;;;;;10.20;6.50;;;5.60;96.20;;;;;;4972385;28;20505;-72
2021/10/25 05:57:13;;;;;;;21.93;6.17;;;5.50;96.20;;;;;;4971344;28;20420;-72
2021/10/25 05:59:41;;;;;;;10.90;6.10;;;5.50;96.30;;;;;;4940376;29;20487;-73
2021/10/25 06:02:24;;;;;;;10.43;6.20;;;5.60;96.30;;;;;;4957732;29;20444;-74
2021/10/25 06:05:05;;;;;;;13.70;6.13;;;5.50;96.30;;;;;;4954461;29;20436;-73
2021/10/25 06:07:35;;;;;;;12.43;5.67;;;5.50;96.30;;;;;;4967877;28;20906;-72
2021/10/25 06:10:01;;;;;;;7.47;6.27;;;5.60;96.30;;;;;;4957093;29;20429;-72
2021/10/25 06:12:40;;;;;;;12.00;7.47;;;5.60;96.40;;;;;;4940220;29;20173;-74
2021/10/25 06:15:22;;;;;;;9.93;6.37;;;5.60;96.30;;;;;;4940064;29;20466;-72
2021/10/25 06:17:52;;;;;;;12.70;6.83;;;5.60;96.40;;;;;;4971194;28;20499;-72
2021/10/25 06:20:19;;;;;;;12.57;6.87;;;5.60;96.50;;;;;;4972362;28;20468;-74
2021/10/25 06:22:46;;;;;;;14.40;8.90;;;5.60;96.50;;;;;;4971106;28;20413;-72
2021/10/25 06:25:13;;;;;;;10.90;7.33;;;5.60;96.50;;;;;;4970644;28;20520;-73
2021/10/25 06:27:47;;;;;;;18.87;7.87;;;5.70;96.40;;;;;;4953218;29;20779;-71
2021/10/25 06:30:14;;;;;;;7.43;5.90;;;5.70;96.40;;;;;;4955577;29;20922;-72
2021/10/25 06:32:40;;;;;;;11.13;6.97;;;5.70;96.30;;;;;;4970346;28;20961;-73
2021/10/25 06:35:26;;;;;;;9.00;6.53;;;5.70;96.30;;;;;;4950670;28;20516;-74
2021/10/25 06:38:30;;;;;;;8.10;5.97;;;5.70;96.10;;;;;;4951476;28;20532;-72
2021/10/25 06:40:57;;;;;;;10.63;6.33;;;5.70;95.90;;;;;;4941689;28;20460;-74
2021/10/25 06:43:23;;;;;;;9.13;5.50;;;5.70;95.80;;;;;;4973964;28;20998;-74
2021/10/25 06:45:52;;;;;;;12.07;6.80;;;5.70;95.80;;;;;;4975850;28;20420;-72
2021/10/25 06:48:18;;;;;;;9.80;6.40;;;5.70;95.70;;;;;;4982325;28;20429;-73
2021/10/25 06:50:44;;;;;;;12.87;6.47;;;5.70;95.70;;;;;;4943075;29;20525;-73
2021/10/25 06:53:12;;;;;;;9.10;6.23;;;5.80;95.70;;;;;;4972584;28;20181;-71
2021/10/25 06:55:58;;;;;;;13.47;7.17;;;5.80;95.60;;;;;;4952187;29;20428;-73
2021/10/25 06:58:30;;;;;;;10.87;5.90;;;5.80;95.60;;;;;;5108439;27;20635;-72
2021/10/25 07:00:59;;;;;;;9.87;6.37;;;5.80;95.60;;;;;;5094310;28;20466;-71
2021/10/25 07:03:27;;;;;;;10.50;5.70;;;5.80;95.50;;;;;;5107781;28;20428;-73
2021/10/25 07:05:54;;;;;;;13.10;7.20;;;5.90;95.50;;;;;;5109679;28;20501;-73
2021/10/25 07:08:20;;;;;;;18.73;7.20;;;5.90;95.40;;;;;;5107650;28;20171;-72
2021/10/25 07:10:48;;;;;;;12.07;7.50;;;5.90;95.30;;;;;;5107914;28;20451;-71
2021/10/25 07:13:14;;;;;;;11.13;7.07;;;5.90;95.30;;;;;;5107917;28;20471;-73
2021/10/25 07:15:50;;;;;;;21.53;7.87;;;6.00;95.30;;;;;;5109238;28;20414;-73
2021/10/25 07:18:28;;;;;;;14.87;6.70;;;6.00;95.20;;;;;;5119714;28;20476;-72
2021/10/25 07:21:12;;;;;;;10.73;7.27;;;6.10;95.20;;;;;;5114761;27;20465;-72
2021/10/25 07:23:59;;;;;;;9.03;6.50;;;6.20;95.70;;;;;;5106398;28;20512;-73
2021/10/25 08:03:51;;;;;;;9.73;7.03;;;7.00;93.50;;;;;;5108429;28;20414;-73
2021/10/25 08:08:50;;;;;;;11.53;6.77;;;7.20;93.10;;;;;;5104491;28;20422;-75
2021/10/25 08:11:18;;;;;;;9.10;7.20;;;7.30;93.00;;;;;;5098359;28;20426;-74
2021/10/25 08:14:00;;;;;;;10.57;6.57;;;7.40;92.90;;;;;;5097831;28;20436;-73
2021/10/25 08:16:42;;;;;;;9.90;6.40;;;7.50;92.70;;;;;;5094435;28;20488;-74
2021/10/25 08:19:14;;;;;;;8.90;6.23;;;7.60;92.40;;;;;;5096386;28;20413;-75
2021/10/25 08:21:39;;;;;;;11.23;7.27;;;7.80;92.40;;;;;;5109668;28;20845;-73
2021/10/25 08:24:05;;;;;;;14.07;6.20;;;7.90;91.80;;;;;;5094873;28;20831;-74
2021/10/25 08:27:04;;;;;;;14.27;6.43;;;8.00;91.90;;;;;;5063562;28;20529;-74
2021/10/25 08:29:35;;;;;;;9.93;5.70;;;8.20;91.40;;;;;;5097344;28;20411;-75
2021/10/25 08:40:02;;;;;;;7.83;5.07;;;8.70;89.90;;;;;;5096625;28;20517;-76
2021/10/25 08:42:36;;;;;;;9.03;5.40;;;8.80;88.60;;;;;;5096047;28;20418;-74
2021/10/25 08:45:13;;;;;;;10.83;4.83;;;9.00;90.20;;;;;;5092695;28;20427;-75
2021/10/25 08:47:44;;;;;;;6.17;4.30;;;10.60;91.90;;;;;;5081362;28;20428;-73
2021/10/25 08:50:14;;;;;;;9.53;6.67;;;13.50;81.20;;;;;;5094522;28;20410;-76
2021/10/25 08:52:44;;;;;;;7.47;5.13;;;16.10;66.10;;;;;;5097104;28;20414;-72
2021/10/25 08:55:12;;;;;;;7.80;4.50;;;17.70;56.60;;;;;;5092404;28;20418;-73
2021/10/25 08:57:40;;;;;;;7.07;4.90;;;19.20;53.70;;;;;;5113706;28;20502;-74
2021/10/25 09:00:13;;;;;;;9.77;5.37;;;20.10;50.70;;;;;;5115003;28;20433;-76
2021/10/25 09:03:00;;;;;;;6.23;5.23;;;20.80;46.80;;;;;;5116515;28;20406;-75
2021/10/25 09:05:28;;;;;;;10.20;6.90;;;21.50;45.60;;;;;;5093916;28;20429;-74
2021/10/25 09:08:02;;;;;;;10.00;6.33;;;22.20;44.00;;;;;;5093719;28;20441;-74
2021/10/25 09:10:44;;;;;;;7.00;5.10;;;22.50;42.60;;;;;;5094403;28;20434;-74
2021/10/25 09:13:11;;;;;;;6.70;5.53;;;23.60;41.80;;;;;;5093823;28;20430;-74
2021/10/25 09:15:39;;;;;;;10.43;5.60;;;24.10;40.10;;;;;;5094346;28;20505;-74
2021/10/25 09:18:33;;;;;;;9.47;7.20;;;24.60;38.20;;;;;;5092384;28;20469;-77
2021/10/25 09:21:05;;;;;;;10.60;7.10;;;25.20;37.50;;;;;;5091086;28;20525;-74
2021/10/25 09:23:44;;;;;;;11.10;5.17;;;25.60;35.60;;;;;;5092490;28;20491;-75
2021/10/25 09:26:16;;;;;;;8.03;5.30;;;26.00;35.90;;;;;;5093014;28;20414;-74
2021/10/25 09:28:56;;;;;;;5.20;4.70;;;26.00;35.30;;;;;;5071604;28;20889;-74
2021/10/25 09:31:30;;;;;;;8.17;6.00;;;25.90;34.40;;;;;;5086844;28;20431;-74
2021/10/25 09:34:05;;;;;;;6.53;5.90;;;25.80;35.50;;;;;;5092949;28;20446;-75
2021/10/25 09:36:59;;;;;;;5.27;4.57;;;25.50;34.60;;;;;;5093894;28;20469;-73
2021/10/25 09:45:39;;;;;;;5.03;4.53;;;25.70;35.40;;;;;;5093902;28;20409;-73
2021/10/25 09:50:54;;;;;;;5.53;3.80;;;26.00;33.50;;;;;;5089685;28;20614;-74
2021/10/25 09:53:46;;;;;;;6.10;4.47;;;26.10;31.90;;;;;;5091699;28;20469;-74
2021/10/25 09:56:15;;;;;;;8.27;4.93;;;25.80;33.40;;;;;;5092008;28;20418;-75
2021/10/25 09:59:09;;;;;;;6.83;4.50;;;25.80;33.60;;;;;;5093026;28;20498;-75
2021/10/25 10:01:36;;;;;;;7.10;4.30;;;25.80;33.10;;;;;;5090560;28;20476;-75
2021/10/25 10:04:05;;;;;;;4.50;4.10;;;25.70;32.60;;;;;;5076646;28;20423;-76
2021/10/25 10:07:04;;;;;;;7.23;4.50;;;25.40;33.10;;;;;;5085196;28;20437;-76
2021/10/25 10:09:31;;;;;;;5.73;3.23;;;25.20;33.80;;;;;;5097370;28;20414;-74
2021/10/25 10:11:57;;;;;;;5.90;4.37;;;24.90;34.10;;;;;;5107682;22;20513;-74
2021/10/25 10:14:24;;;;;;;13.47;9.17;;;24.50;34.60;;;;;;5099063;28;20403;-74
2021/10/25 10:16:53;;;;;;;15.70;11.37;;;23.70;35.30;;;;;;5078223;28;20462;-74
2021/10/25 10:19:24;;;;;;;5.40;4.40;;;22.30;37.40;;;;;;5094117;28;20414;-74
2021/10/25 10:22:21;;;;;;;5.50;4.47;;;21.10;39.30;;;;;;5076528;28;20195;-74
2021/10/25 10:25:02;;;;;;;8.10;4.23;;;19.90;41.20;;;;;;5056904;28;20431;-73
2021/10/25 10:27:29;;;;;;;5.93;4.50;;;19.00;42.90;;;;;;5073798;28;20418;-75
2021/10/25 10:29:58;;;;;;;5.57;4.20;;;18.40;44.30;;;;;;5073511;28;20923;-73
2021/10/25 10:32:44;;;;;;;6.80;4.13;;;17.70;45.70;;;;;;5073586;28;20411;-74
2021/10/25 10:35:22;;;;;;;4.93;4.43;;;17.00;47.30;;;;;;5056642;28;20424;-74
2021/10/25 10:38:27;;;;;;;7.13;4.67;;;16.40;48.80;;;;;;5033162;28;20552;-74
2021/10/25 10:41:22;;;;;;;5.20;4.10;;;15.90;50.30;;;;;;5078250;28;20789;-74
2021/10/25 10:44:10;;;;;;;6.40;3.73;;;15.60;51.50;;;;;;5061542;28;21668;-73
2021/10/25 10:46:56;;;;;;;7.53;4.13;;;15.40;51.90;;;;;;5080947;28;20554;-74
2021/10/25 10:49:35;;;;;;;5.03;4.00;;;15.40;52.50;;;;;;5092226;28;20924;-74
2021/10/25 10:52:28;;;;;;;7.33;4.00;;;15.50;53.10;;;;;;5076272;28;20505;-73
2021/10/25 10:55:12;;;;;;;8.10;4.80;;;15.50;53.00;;;;;;5058435;28;20422;-74
2021/10/25 11:00:23;;;;;;;8.17;4.33;;;15.60;53.20;;;;;;5084425;28;20516;-74
2021/10/25 11:02:59;;;;;;;11.73;4.63;;;15.80;53.50;;;;;;5063479;28;20412;-75
2021/10/25 11:05:37;;;;;;;15.97;4.57;;;16.00;53.30;;;;;;5090245;28;20426;-75
2021/10/25 11:08:08;;;;;;;7.13;3.90;;;16.30;52.70;;;;;;5078078;28;20521;-73
2021/10/25 11:10:41;;;;;;;9.80;4.10;;;16.40;52.00;;;;;;5079289;28;20422;-74
2021/10/25 11:13:27;;;;;;;6.97;3.87;;;16.30;52.00;;;;;;5095882;28;20406;-73
2021/10/25 11:15:58;;;;;;;5.23;3.40;;;16.10;52.70;;;;;;5081040;28;20426;-73
2021/10/25 11:18:32;;;;;;;6.30;3.43;;;15.90;53.30;;;;;;5057316;28;20551;-74
2021/10/25 11:21:07;;;;;;;4.30;2.60;;;15.90;53.60;;;;;;5076038;28;20780;-73
2021/10/25 11:23:43;;;;;;;5.33;3.20;;;15.90;53.70;;;;;;5078949;28;20521;-73
2021/10/25 11:26:42;;;;;;;6.77;3.73;;;15.90;53.90;;;;;;5079902;28;20521;-73
2021/10/25 11:29:26;;;;;;;78.77;45.13;;;15.80;54.10;;;;;;5065166;28;20459;-74
2021/10/25 11:31:59;;;;;;;4.50;3.67;;;15.70;54.40;;;;;;5067774;28;20442;-73
2021/10/25 11:34:29;;;;;;;9.00;3.63;;;15.60;54.80;;;;;;5092169;28;20448;-72
2021/10/25 11:37:19;;;;;;;5.17;3.60;;;15.70;55.20;;;;;;5077411;28;20474;-73
2021/10/25 11:39:52;;;;;;;5.10;3.43;;;15.80;55.00;;;;;;5064172;28;20973;-72
2021/10/25 11:42:19;;;;;;;5.23;3.20;;;15.90;54.50;;;;;;5058870;28;20856;-74
2021/10/25 11:44:51;;;;;;;3.60;3.00;;;16.00;54.90;;;;;;5096879;28;20434;-74
2021/10/25 11:47:23;;;;;;;4.13;2.93;;;16.00;54.50;;;;;;5077582;28;20542;-73
2021/10/25 11:49:50;;;;;;;10.50;3.23;;;16.00;55.00;;;;;;5079486;28;20484;-73
2021/10/25 11:52:16;;;;;;;5.33;3.50;;;16.10;55.20;;;;;;5093324;28;20442;-74
2021/10/25 11:54:51;;;;;;;7.33;4.43;;;16.30;55.00;;;;;;5059813;28;20426;-74
2021/10/25 11:57:21;;;;;;;4.33;2.97;;;16.50;54.60;;;;;;5078295;28;20485;-74
2021/10/25 11:59:59;;;;;;;5.93;3.20;;;16.50;54.40;;;;;;5080210;28;20422;-75
2021/10/25 12:02:28;;;;;;;6.60;3.20;;;16.60;53.90;;;;;;5079468;28;20541;-73
2021/10/25 12:04:55;;;;;;;4.40;3.17;;;16.60;54.00;;;;;;5080970;28;20436;-73
2021/10/25 12:07:23;;;;;;;4.63;2.73;;;16.70;53.80;;;;;;5096868;28;20449;-72
2021/10/25 12:10:05;;;;;;;11.57;5.43;;;16.60;53.70;;;;;;5079647;28;20186;-73
2021/10/25 12:12:31;;;;;;;6.23;2.87;;;16.60;53.70;;;;;;5080081;28;20539;-74
2021/10/25 12:15:01;;;;;;;3.80;2.50;;;16.70;53.40;;;;;;5099159;28;20489;-73
2021/10/25 12:17:33;;;;;;;4.57;2.50;;;16.90;53.40;;;;;;5077602;28;20466;-74
2021/10/25 12:20:05;;;;;;;11.40;3.40;;;17.00;52.90;;;;;;5069754;28;20423;-74
2021/10/25 12:22:31;;;;;;;4.33;2.43;;;17.00;52.90;;;;;;5083279;28;20440;-71
2021/10/25 12:25:02;;;;;;;7.70;3.30;;;17.00;52.90;;;;;;5078909;28;20588;-72
2021/10/25 12:27:36;;;;;;;3.70;2.63;;;17.00;53.10;;;;;;5091382;28;20416;-72
2021/10/25 12:30:11;;;;;;;7.10;3.13;;;17.00;52.70;;;;;;5069085;28;20456;-73
2021/10/25 12:32:53;;;;;;;10.13;2.73;;;17.00;52.90;;;;;;5071094;28;20462;-74
2021/10/25 12:35:41;;;;;;;6.67;2.53;;;17.00;52.60;;;;;;5083658;28;20412;-73
2021/10/25 12:38:11;;;;;;;3.80;2.33;;;17.00;53.00;;;;;;5094153;28;20481;-75
2021/10/25 12:41:00;;;;;;;5.43;3.20;;;17.00;53.10;;;;;;5100965;28;20442;-70
2021/10/25 12:43:37;;;;;;;7.57;2.73;;;17.00;53.20;;;;;;5105664;28;20426;-74
2021/10/25 12:46:06;;;;;;;4.63;2.40;;;17.10;53.40;;;;;;5087621;28;20422;-73
2021/10/25 12:48:48;;;;;;;4.23;2.10;;;17.20;53.00;;;;;;5103103;28;20420;-75
2021/10/25 12:51:16;;;;;;;6.60;2.90;;;17.30;53.10;;;;;;5119928;28;20429;-75
2021/10/25 12:53:48;;;;;;;4.80;2.90;;;17.50;53.10;;;;;;5105487;28;20417;-74
2021/10/25 12:56:25;;;;;;;5.70;3.43;;;17.60;52.80;;;;;;5127262;28;20426;-75
2021/10/25 12:59:03;;;;;;;8.60;6.70;;;17.60;52.40;;;;;;5085450;28;20413;-73
2021/10/25 13:01:29;;;;;;;7.13;2.83;;;17.50;52.50;;;;;;5073387;28;20446;-74
2021/10/25 13:03:59;;;;;;;5.00;2.90;;;17.50;52.50;;;;;;5094802;28;20449;-74
2021/10/25 13:06:30;;;;;;;5.73;3.10;;;17.30;52.70;;;;;;5095123;28;20178;-73
2021/10/25 13:09:08;;;;;;;3.60;2.63;;;17.30;53.00;;;;;;5099079;28;20423;-73
2021/10/25 13:11:34;;;;;;;14.27;9.77;;;17.30;53.00;;;;;;5099493;28;20442;-74
2021/10/25 13:14:01;;;;;;;2.90;2.20;;;17.30;53.20;;;;;;5094315;28;20743;-73
2021/10/25 13:16:30;;;;;;;10.67;3.33;;;17.30;52.90;;;;;;5077944;28;20434;-73
2021/10/25 13:18:58;;;;;;;9.53;3.97;;;17.20;53.30;;;;;;5068693;28;20420;-74
2021/10/25 13:21:24;;;;;;;5.10;2.20;;;17.20;53.50;;;;;;5082934;28;20482;-72
2021/10/25 13:23:50;;;;;;;3.50;2.80;;;17.10;53.30;;;;;;5080898;28;20513;-73
2021/10/25 13:26:15;;;;;;;7.80;2.80;;;17.10;53.50;;;;;;5085116;28;20190;-74
2021/10/25 13:28:41;;;;;;;3.80;2.30;;;17.00;53.50;;;;;;5064042;28;20181;-74
2021/10/25 13:31:07;;;;;;;3.70;2.33;;;17.00;53.50;;;;;;5060655;28;20181;-74
2021/10/25 13:33:35;;;;;;;4.67;2.33;;;16.90;53.50;;;;;;5079253;28;20169;-74
2021/10/25 13:36:01;;;;;;;5.70;2.30;;;16.80;53.60;;;;;;5081163;28;20475;-73
2021/10/25 13:38:30;;;;;;;4.63;3.00;;;16.70;53.80;;;;;;5069626;28;20489;-75
2021/10/25 13:40:56;;;;;;;8.83;3.50;;;16.70;53.90;;;;;;5071842;28;20495;-72
2021/10/25 13:43:21;;;;;;;7.13;3.70;;;16.70;54.80;;;;;;5094025;28;20511;-73
2021/10/25 13:45:47;;;;;;;11.93;4.57;;;16.70;54.30;;;;;;5087668;28;20245;-73
2021/10/25 13:48:14;;;;;;;8.10;2.97;;;16.70;54.90;;;;;;5076842;28;20620;-72
2021/10/25 13:50:41;;;;;;;6.43;2.80;;;16.70;54.70;;;;;;5094267;28;20199;-72
2021/10/25 13:53:09;;;;;;;7.70;3.13;;;16.70;54.90;;;;;;5076268;28;20431;-72
2021/10/25 13:55:35;;;;;;;6.97;2.97;;;16.70;55.10;;;;;;5077786;28;20920;-73
2021/10/25 13:58:01;;;;;;;5.57;3.20;;;16.70;55.30;;;;;;5075142;28;20490;-72
2021/10/25 14:00:27;;;;;;;7.70;4.23;;;16.70;55.40;;;;;;5079053;28;20461;-71
2021/10/25 14:02:55;;;;;;;5.13;3.40;;;16.70;55.60;;;;;;5093774;28;20396;-73
2021/10/25 14:05:21;;;;;;;5.60;3.13;;;16.70;55.90;;;;;;5076915;28;20168;-72
2021/10/25 14:07:47;;;;;;;5.83;3.23;;;16.60;56.10;;;;;;5092433;28;20411;-73
2021/10/25 14:10:24;;;;;;;7.60;3.77;;;16.60;56.50;;;;;;5092990;28;20245;-73
2021/10/25 14:12:50;;;;;;;4.67;3.33;;;16.60;56.70;;;;;;5095021;28;20505;-73
2021/10/25 14:15:27;;;;;;;10.83;3.60;;;16.60;56.70;;;;;;5095016;28;20406;-72
2021/10/25 14:17:54;;;;;;;4.73;2.63;;;16.60;57.80;;;;;;5094790;28;20453;-72
2021/10/25 14:20:26;;;;;;;6.10;2.77;;;16.60;57.80;;;;;;5078312;28;20428;-72
2021/10/25 14:22:54;;;;;;;5.20;3.00;;;16.50;58.40;;;;;;5097851;28;20831;-72
2021/10/25 14:25:20;;;;;;;5.03;2.50;;;16.50;59.00;;;;;;5095915;28;20463;-73
2021/10/25 14:27:46;;;;;;;5.47;2.77;;;16.50;59.00;;;;;;5077634;28;20548;-72
2021/10/25 14:30:13;;;;;;;8.37;3.30;;;16.40;59.40;;;;;;5078494;28;20426;-73
2021/10/25 14:32:39;;;;;;;9.63;5.07;;;16.40;59.80;;;;;;5096662;28;20327;-72
2021/10/25 14:35:05;;;;;;;9.73;4.13;;;16.30;59.70;;;;;;5077507;28;20828;-72
2021/10/25 14:37:35;;;;;;;8.50;4.20;;;16.20;59.80;;;;;;5093873;28;20199;-72
2021/10/25 14:40:08;;;;;;;8.53;5.50;;;16.10;59.50;;;;;;5094224;28;20422;-71